createdAt,value
2022-08-03T00:02:02.123Z,2.50
2022-08-03T00:05:01.375Z,2.10
2022-08-03T00:07:58.826Z,2.20
2022-08-03T00:10:57.597Z,1.90
2022-08-03T00:13:55.051Z,1.70
2022-08-03T00:16:52.507Z,1.60
2022-08-03T00:19:49.987Z,1.90
2022-08-03T00:22:47.452Z,1.90
2022-08-03T00:25:44.929Z,2.00
2022-08-03T00:28:42.380Z,1.90
2022-08-03T00:31:52.856Z,1.80
2022-08-03T00:34:58.638Z,1.80
2022-08-03T00:37:56.649Z,1.70
2022-08-03T00:40:54.120Z,2.00
2022-08-03T00:43:51.602Z,1.80
2022-08-03T00:46:49.064Z,1.70
2022-08-03T00:49:46.541Z,1.80
2022-08-03T00:52:44.005Z,1.70
2022-08-03T00:55:41.481Z,1.70
2022-08-03T00:58:38.942Z,1.60
2022-08-03T01:01:36.551Z,1.60
2022-08-03T01:04:34.055Z,2.00
2022-08-03T01:07:31.550Z,1.80
2022-08-03T01:10:29.046Z,1.70
2022-08-03T01:14:01.080Z,1.80
2022-08-03T01:16:46.557Z,1.60
2022-08-03T01:19:44.986Z,1.60
2022-08-03T01:22:42.457Z,1.50
2022-08-03T01:25:39.958Z,1.50
2022-08-03T01:28:37.422Z,1.60
2022-08-03T01:31:35.235Z,1.70
2022-08-03T01:34:53.207Z,1.70
2022-08-03T01:37:50.687Z,2.30
2022-08-03T01:40:48.200Z,1.80
2022-08-03T01:44:27.005Z,2.00
2022-08-03T01:47:06.587Z,1.70
2022-08-03T01:50:04.057Z,1.80
2022-08-03T01:53:01.556Z,1.70
2022-08-03T01:55:59.100Z,1.90
2022-08-03T01:58:56.565Z,1.70
2022-08-03T02:02:28.591Z,1.60
2022-08-03T02:05:11.558Z,2.00
2022-08-03T02:08:09.066Z,1.90
2022-08-03T02:11:06.552Z,1.50
2022-08-03T02:14:04.043Z,1.80
2022-08-03T02:17:01.547Z,1.70
2022-08-03T02:19:59.031Z,1.70
2022-08-03T02:22:56.561Z,1.70
2022-08-03T02:25:54.069Z,1.60
2022-08-03T02:28:51.586Z,1.80
2022-08-03T02:31:49.081Z,1.70
2022-08-03T02:34:46.565Z,1.60
2022-08-03T02:37:45.067Z,1.80
2022-08-03T02:40:47.445Z,2.00
2022-08-03T02:44:05.522Z,1.90
2022-08-03T02:47:02.449Z,1.70
2022-08-03T02:49:59.944Z,2.00
2022-08-03T02:52:57.479Z,2.00
2022-08-03T02:55:54.960Z,1.80
2022-08-03T02:58:52.450Z,1.70
2022-08-03T03:01:49.974Z,1.90
2022-08-03T03:05:52.563Z,1.70
2022-08-03T03:08:04.937Z,2.00
2022-08-03T03:11:15.696Z,2.00
2022-08-03T03:14:13.518Z,1.70
2022-08-03T03:17:11.044Z,2.00
2022-08-03T03:20:08.521Z,1.90
2022-08-03T03:23:05.978Z,2.00
2022-08-03T03:26:03.413Z,1.70
2022-08-03T03:29:00.874Z,2.20
2022-08-03T03:31:58.421Z,1.90
2022-08-03T03:34:59.700Z,2.00
2022-08-03T03:37:57.193Z,2.10
2022-08-03T03:40:54.655Z,2.00
2022-08-03T03:43:52.148Z,1.90
2022-08-03T03:46:49.635Z,1.90
2022-08-03T03:49:47.094Z,1.90
2022-08-03T03:52:45.891Z,1.90
2022-08-03T03:55:59.179Z,1.90
2022-08-03T03:59:00.320Z,2.00
2022-08-03T04:01:59.146Z,1.90
2022-08-03T04:05:14.697Z,2.00
2022-08-03T04:08:30.079Z,2.00
2022-08-03T04:11:29.476Z,2.00
2022-08-03T04:14:28.972Z,2.20
2022-08-03T04:17:27.142Z,1.90
2022-08-03T04:20:24.620Z,1.90
2022-08-03T04:23:22.108Z,1.70
2022-08-03T04:26:19.569Z,1.90
2022-08-03T04:29:17.048Z,2.00
2022-08-03T04:32:14.609Z,1.80
2022-08-03T04:35:12.294Z,2.00
2022-08-03T04:38:09.769Z,2.00
2022-08-03T04:41:07.233Z,2.10
2022-08-03T04:44:04.759Z,2.00
2022-08-03T04:47:02.234Z,2.30
2022-08-03T04:49:59.713Z,2.30
2022-08-03T04:52:57.199Z,2.00
2022-08-03T04:55:54.655Z,2.10
2022-08-03T04:58:52.138Z,2.30
2022-08-03T05:01:49.710Z,2.10
2022-08-03T05:04:47.619Z,2.00
2022-08-03T05:07:45.556Z,2.20
2022-08-03T05:10:44.855Z,2.40
2022-08-03T05:13:42.313Z,2.10
2022-08-03T05:16:39.808Z,2.00
2022-08-03T05:19:37.299Z,2.20
2022-08-03T05:22:34.838Z,2.00
2022-08-03T05:25:32.346Z,2.20
2022-08-03T05:28:29.838Z,2.60
2022-08-03T05:31:27.332Z,2.40
2022-08-03T05:34:24.805Z,2.30
2022-08-03T05:37:22.294Z,2.30
2022-08-03T05:40:20.223Z,2.50
2022-08-03T05:43:18.170Z,2.30
2022-08-03T05:46:15.631Z,2.00
2022-08-03T05:49:14.467Z,1.80
2022-08-03T05:52:22.072Z,1.90
2022-08-03T05:55:19.863Z,2.40
2022-08-03T05:58:17.351Z,2.40
2022-08-03T06:01:14.981Z,2.00
2022-08-03T06:04:12.749Z,2.20
2022-08-03T06:07:10.261Z,2.10
2022-08-03T06:10:37.577Z,2.20
2022-08-03T06:13:25.178Z,2.10
2022-08-03T06:16:22.663Z,2.10
2022-08-03T06:19:20.168Z,2.00
2022-08-03T06:22:17.858Z,2.20
2022-08-03T06:25:16.951Z,2.00
2022-08-03T06:28:51.620Z,2.20
2022-08-03T06:31:36.808Z,1.90
2022-08-03T06:34:35.775Z,1.90
2022-08-03T06:37:33.409Z,2.10
2022-08-03T06:40:31.570Z,2.60
2022-08-03T06:43:29.033Z,2.20
2022-08-03T06:46:33.534Z,2.30
2022-08-03T06:49:31.101Z,2.10
2022-08-03T06:52:37.704Z,1.90
2022-08-03T06:55:36.215Z,1.90
2022-08-03T06:58:39.787Z,1.90
2022-08-03T07:01:37.318Z,1.90
2022-08-03T07:04:34.957Z,1.40
2022-08-03T07:07:32.475Z,1.60
2022-08-03T07:10:29.990Z,1.90
2022-08-03T07:13:27.585Z,1.80
2022-08-03T07:16:25.076Z,1.80
2022-08-03T07:19:22.556Z,1.70
2022-08-03T07:22:20.171Z,1.90
2022-08-03T07:25:17.641Z,1.80
2022-08-03T07:28:15.106Z,1.60
2022-08-03T07:31:12.593Z,1.80
2022-08-03T07:34:10.489Z,1.90
2022-08-03T07:37:08.217Z,1.60
2022-08-03T07:40:05.721Z,2.00
2022-08-03T07:43:03.926Z,1.80
2022-08-03T07:46:01.416Z,1.90
2022-08-03T07:48:58.909Z,1.90
2022-08-03T07:52:11.594Z,1.80
2022-08-03T07:55:09.156Z,1.80
2022-08-03T07:58:06.784Z,1.40
2022-08-03T08:01:04.353Z,1.80
2022-08-03T08:04:01.839Z,1.60
2022-08-03T08:06:59.296Z,1.90
2022-08-03T08:09:56.882Z,2.00
2022-08-03T08:12:54.344Z,1.70
2022-08-03T08:15:51.829Z,1.40
2022-08-03T08:18:49.321Z,1.50
2022-08-03T08:21:53.269Z,1.50
2022-08-03T08:24:59.632Z,1.40
2022-08-03T08:28:31.371Z,1.30
2022-08-03T08:31:17.658Z,1.40
2022-08-03T08:34:15.137Z,1.50
2022-08-03T08:37:12.630Z,1.30
2022-08-03T08:40:10.103Z,1.40
2022-08-03T08:43:07.737Z,1.20
2022-08-03T08:46:05.701Z,1.50
2022-08-03T08:49:04.554Z,1.40
2022-08-03T08:52:02.640Z,1.50
2022-08-03T08:55:00.306Z,1.30
2022-08-03T08:57:59.489Z,1.40
2022-08-03T09:00:57.185Z,1.50
2022-08-03T09:03:54.723Z,1.20
2022-08-03T09:07:17.599Z,1.20
2022-08-03T09:10:12.980Z,1.20
2022-08-03T09:13:11.125Z,1.30
2022-08-03T09:16:08.629Z,1.40
2022-08-03T09:19:06.201Z,1.30
2022-08-03T09:22:03.701Z,1.30
2022-08-03T09:25:22.798Z,1.10
2022-08-03T09:28:59.493Z,1.20
2022-08-03T09:31:36.652Z,1.30
2022-08-03T09:34:34.146Z,1.40
2022-08-03T09:38:12.554Z,1.40
2022-08-03T09:40:49.146Z,1.40
2022-08-03T09:43:47.666Z,1.20
2022-08-03T09:46:45.297Z,1.20
2022-08-03T09:49:47.727Z,1.20
2022-08-03T09:52:51.979Z,1.40
2022-08-03T09:56:33.879Z,1.20
2022-08-03T09:59:07.508Z,1.20
2022-08-03T10:02:05.041Z,0.90
2022-08-03T10:05:02.535Z,1.10
2022-08-03T10:08:00.041Z,1.00
2022-08-03T10:10:58.876Z,1.10
2022-08-03T10:13:58.043Z,1.30
2022-08-03T10:16:59.270Z,1.10
2022-08-03T10:19:59.529Z,1.10
2022-08-03T10:22:56.989Z,1.30
2022-08-03T10:25:54.542Z,1.20
2022-08-03T10:28:52.009Z,1.20
2022-08-03T10:31:57.405Z,1.30
2022-08-03T10:35:00.032Z,1.00
2022-08-03T10:37:58.902Z,1.10
2022-08-03T10:40:59.112Z,1.00
2022-08-03T10:43:57.116Z,0.90
2022-08-03T10:46:54.712Z,1.00
2022-08-03T10:49:52.220Z,1.10
2022-08-03T10:52:49.721Z,1.10
2022-08-03T10:56:05.793Z,1.00
2022-08-03T10:59:03.896Z,1.10
2022-08-03T11:02:01.539Z,1.00
2022-08-03T11:04:59.034Z,0.90
2022-08-03T11:07:56.534Z,0.90
2022-08-03T11:10:54.037Z,1.00
2022-08-03T11:13:51.541Z,1.20
2022-08-03T11:16:49.886Z,1.30
2022-08-03T11:19:56.782Z,1.00
2022-08-03T11:22:57.200Z,1.20
2022-08-03T11:25:55.438Z,0.90
2022-08-03T11:28:53.026Z,0.90
2022-08-03T11:31:51.663Z,1.00
2022-08-03T11:34:49.551Z,0.90
2022-08-03T11:38:02.456Z,1.10
2022-08-03T11:41:02.821Z,0.90
2022-08-03T11:44:00.280Z,1.00
2022-08-03T11:46:57.781Z,1.10
2022-08-03T11:49:55.252Z,1.00
2022-08-03T11:52:52.739Z,1.00
2022-08-03T11:55:50.262Z,1.20
2022-08-03T11:59:13.150Z,1.00
2022-08-03T12:02:05.232Z,0.90
2022-08-03T12:05:02.802Z,1.50
2022-08-03T12:08:05.026Z,1.00
2022-08-03T12:11:05.790Z,1.10
2022-08-03T12:14:45.123Z,0.90
2022-08-03T12:17:21.009Z,0.90
2022-08-03T12:20:18.853Z,1.00
2022-08-03T12:23:16.338Z,1.00
2022-08-03T12:26:13.783Z,0.90
2022-08-03T12:29:11.298Z,1.00
2022-08-03T12:32:09.863Z,1.10
2022-08-03T12:35:07.379Z,1.20
2022-08-03T12:38:04.848Z,1.00
2022-08-03T12:41:02.300Z,1.00
2022-08-03T12:44:00.101Z,1.10
2022-08-03T12:46:57.557Z,1.10
2022-08-03T12:49:55.052Z,0.80
2022-08-03T12:52:52.559Z,0.90
2022-08-03T12:56:04.248Z,1.90
2022-08-03T12:59:03.129Z,0.90
2022-08-03T13:02:00.661Z,1.20
2022-08-03T13:04:59.557Z,0.90
2022-08-03T13:07:57.586Z,1.00
2022-08-03T13:10:55.044Z,1.10
2022-08-03T13:13:52.507Z,1.20
2022-08-03T13:16:49.983Z,1.20
2022-08-03T13:19:47.482Z,1.10
2022-08-03T13:22:45.724Z,1.10
2022-08-03T13:25:55.675Z,1.10
2022-08-03T13:28:53.664Z,1.00
2022-08-03T13:31:51.403Z,0.90
2022-08-03T13:34:48.954Z,1.10
2022-08-03T13:37:49.000Z,1.00
2022-08-03T13:40:46.637Z,1.00
2022-08-03T13:43:47.710Z,1.10
2022-08-03T13:46:45.211Z,1.20
2022-08-03T13:49:42.682Z,1.30
2022-08-03T13:52:54.482Z,1.20
2022-08-03T13:55:51.948Z,1.40
2022-08-03T13:58:49.405Z,1.10
2022-08-03T14:01:55.293Z,1.20
2022-08-03T14:04:54.834Z,1.30
2022-08-03T14:07:52.308Z,1.30
2022-08-03T14:10:55.761Z,1.00
2022-08-03T14:13:53.223Z,1.30
2022-08-03T14:16:50.715Z,1.20
2022-08-03T14:19:54.151Z,1.20
2022-08-03T14:22:51.714Z,1.20
2022-08-03T14:25:51.571Z,1.00
2022-08-03T14:28:50.356Z,1.20
2022-08-03T14:32:11.895Z,1.20
2022-08-03T14:35:05.280Z,1.20
2022-08-03T14:38:02.771Z,1.30
2022-08-03T14:41:00.235Z,1.10
2022-08-03T14:44:01.310Z,1.20
2022-08-03T14:47:00.775Z,1.30
2022-08-03T14:50:30.493Z,1.10
2022-08-03T14:53:17.432Z,1.20
2022-08-03T14:56:14.880Z,1.50
2022-08-03T14:59:12.397Z,1.20
2022-08-03T15:02:15.962Z,1.20
2022-08-03T15:05:18.900Z,1.20
2022-08-03T15:08:16.418Z,1.30
2022-08-03T15:11:13.902Z,1.10
2022-08-03T15:14:13.493Z,1.30
2022-08-03T15:17:12.395Z,1.20
2022-08-03T15:20:22.499Z,1.10
2022-08-03T15:23:27.561Z,1.00
2022-08-03T15:26:33.903Z,1.30
2022-08-03T15:30:07.213Z,1.40
2022-08-03T15:32:51.505Z,1.20
2022-08-03T15:35:49.961Z,1.40
2022-08-03T15:38:47.595Z,1.30
2022-08-03T15:41:45.132Z,1.40
2022-08-03T15:44:42.904Z,1.20
2022-08-03T15:47:40.364Z,1.40
2022-08-03T15:50:37.837Z,0.90
2022-08-03T15:53:35.308Z,1.30
2022-08-03T15:56:32.778Z,1.10
2022-08-03T15:59:30.278Z,1.30
2022-08-03T16:02:27.804Z,1.70
2022-08-03T16:05:25.269Z,1.30
2022-08-03T16:08:22.753Z,1.70
2022-08-03T16:11:20.196Z,2.30
2022-08-03T16:14:34.311Z,2.00
2022-08-03T16:17:33.321Z,2.70
2022-08-03T16:20:34.371Z,2.10
2022-08-03T16:23:33.960Z,1.90
2022-08-03T16:26:32.328Z,2.60
2022-08-03T16:29:32.512Z,1.50
2022-08-03T16:32:29.961Z,2.50
2022-08-03T16:35:27.470Z,1.60
2022-08-03T16:38:24.956Z,1.30
2022-08-03T16:41:22.410Z,3.10
2022-08-03T16:44:19.914Z,1.70
2022-08-03T16:47:22.138Z,2.20
2022-08-03T16:50:20.506Z,1.40
2022-08-03T16:53:33.008Z,1.80
2022-08-03T16:56:31.337Z,2.20
2022-08-03T16:59:36.187Z,1.70
2022-08-03T17:02:34.111Z,1.60
2022-08-03T17:05:46.943Z,1.40
2022-08-03T17:08:55.497Z,1.50
2022-08-03T17:11:53.090Z,1.20
2022-08-03T17:14:50.597Z,1.30
2022-08-03T17:17:53.671Z,1.20
2022-08-03T17:20:53.480Z,1.70
2022-08-03T17:23:51.778Z,1.10
2022-08-03T17:26:50.209Z,1.30
2022-08-03T17:29:48.889Z,1.50
2022-08-03T17:32:56.623Z,1.30
2022-08-03T17:35:56.599Z,1.60
2022-08-03T17:41:53.699Z,1.50
2022-08-03T17:44:51.436Z,1.90
2022-08-03T17:47:57.792Z,1.40
2022-08-03T17:50:55.611Z,1.30
2022-08-03T17:53:53.473Z,1.60
2022-08-03T17:56:50.974Z,1.30
2022-08-03T17:59:52.571Z,1.30
2022-08-03T18:03:08.208Z,1.40
2022-08-03T18:06:11.135Z,1.50
2022-08-03T18:10:03.353Z,1.60
2022-08-03T18:12:28.195Z,1.50
2022-08-03T18:15:26.585Z,1.80
2022-08-03T18:18:29.362Z,1.80
2022-08-03T18:22:02.252Z,1.80
2022-08-03T18:24:47.737Z,2.00
2022-08-03T18:27:47.690Z,2.00
2022-08-03T18:30:53.996Z,2.10
2022-08-03T18:37:10.250Z,2.70
2022-08-03T18:40:07.890Z,3.00
2022-08-03T18:43:08.834Z,2.30
2022-08-03T18:46:06.601Z,2.00
2022-08-03T18:49:08.137Z,1.80
2022-08-03T18:52:12.414Z,1.90
2022-08-03T18:58:28.192Z,1.80
2022-08-03T19:02:00.387Z,2.30
2022-08-03T19:04:45.199Z,1.90
2022-08-03T19:07:42.933Z,1.90
2022-08-03T19:11:00.569Z,1.80
2022-08-03T19:13:59.655Z,1.80
2022-08-03T19:16:57.923Z,1.70
2022-08-03T19:19:55.698Z,1.80
2022-08-03T19:22:53.838Z,2.00
2022-08-03T19:25:52.098Z,1.70
2022-08-03T19:28:53.933Z,1.60
2022-08-03T19:31:58.956Z,1.80
2022-08-03T19:34:57.759Z,1.70
2022-08-03T19:37:57.463Z,1.60
2022-08-03T19:40:59.699Z,1.60
2022-08-03T19:43:58.224Z,1.70
2022-08-03T19:46:56.153Z,2.00
2022-08-03T19:50:06.201Z,2.10
2022-08-03T19:53:11.749Z,1.80
2022-08-03T19:56:09.555Z,1.90
2022-08-03T19:59:07.441Z,2.10
2022-08-03T20:02:17.400Z,2.10
2022-08-03T20:05:23.727Z,1.80
2022-08-03T20:08:21.404Z,1.90
2022-08-03T20:11:19.018Z,2.00
2022-08-03T20:14:20.695Z,2.00
2022-08-03T20:17:55.868Z,1.80
2022-08-03T20:20:41.786Z,2.20
2022-08-03T20:24:01.568Z,2.40
2022-08-03T20:27:01.026Z,2.30
2022-08-03T20:30:06.381Z,2.20
2022-08-03T20:33:05.585Z,2.20
2022-08-03T20:36:03.507Z,2.60
2022-08-03T20:39:01.149Z,1.80
2022-08-03T20:42:05.197Z,2.10
2022-08-03T20:45:06.010Z,2.10
2022-08-03T20:51:03.214Z,2.00
2022-08-03T20:54:03.024Z,2.00
2022-08-03T20:57:03.618Z,1.90
2022-08-03T21:00:04.589Z,2.00
2022-08-03T21:03:02.147Z,1.80
2022-08-03T21:05:59.679Z,2.20
2022-08-03T21:09:03.867Z,2.10
2022-08-03T21:12:01.791Z,2.00
2022-08-03T21:12:58.400Z,2.50
2022-08-03T21:13:09.559Z,1.60
2022-08-03T21:14:59.324Z,2.10
2022-08-03T21:17:56.801Z,2.00
2022-08-03T21:20:55.737Z,2.00
2022-08-03T21:23:53.311Z,1.70
2022-08-03T21:26:50.798Z,2.20
2022-08-03T21:29:52.867Z,2.30
2022-08-03T21:32:51.519Z,2.00
2022-08-03T21:35:49.062Z,1.70
2022-08-03T21:38:47.599Z,2.30
2022-08-03T21:41:54.337Z,2.10
2022-08-03T21:44:52.382Z,1.90
2022-08-03T21:47:49.886Z,2.20
2022-08-03T21:50:47.393Z,2.10
2022-08-03T21:54:04.006Z,1.90
2022-08-03T21:57:02.245Z,2.00
2022-08-03T21:59:59.770Z,2.00
2022-08-03T22:02:58.141Z,2.00
2022-08-03T22:06:02.454Z,2.00
2022-08-03T22:09:02.672Z,2.10
2022-08-03T22:12:00.215Z,2.00
2022-08-03T22:15:00.434Z,2.00
2022-08-03T22:17:59.000Z,1.70
2022-08-03T22:20:56.531Z,1.90
2022-08-03T22:23:54.901Z,1.90
2022-08-03T22:27:10.153Z,1.70
2022-08-03T22:30:07.615Z,1.60
2022-08-03T22:33:05.104Z,1.70
2022-08-03T22:36:06.148Z,2.10
2022-08-03T22:39:03.642Z,1.70
2022-08-03T22:42:01.147Z,2.20
2022-08-03T22:44:58.625Z,2.50
2022-08-03T22:47:56.124Z,2.10
2022-08-03T22:50:53.595Z,2.20
2022-08-03T22:53:51.100Z,2.10
2022-08-03T22:56:48.627Z,2.20
2022-08-03T22:59:47.446Z,2.50
2022-08-03T23:02:44.946Z,2.30
2022-08-03T23:06:01.866Z,2.10
2022-08-03T23:09:01.141Z,2.30
2022-08-03T23:11:58.645Z,2.20
2022-08-03T23:14:56.124Z,1.80
2022-08-03T23:17:58.074Z,2.30
2022-08-03T23:20:56.035Z,2.10
2022-08-03T23:23:53.531Z,2.20
2022-08-03T23:26:51.033Z,2.00
2022-08-03T23:29:48.564Z,2.10
2022-08-03T23:32:46.077Z,2.00
2022-08-03T23:36:29.739Z,2.20
2022-08-03T23:39:15.749Z,1.90
2022-08-03T23:42:13.277Z,2.20
2022-08-03T23:45:10.750Z,1.90
2022-08-03T23:48:08.274Z,1.60
2022-08-03T23:51:05.753Z,1.80
2022-08-03T23:54:03.262Z,2.50
2022-08-03T23:57:00.743Z,1.80
2022-08-03T23:59:58.248Z,1.90
